EZY41VP EGNS-EGGP
Flight info
| Callsign | EZY41VP |
|---|---|
| Flight time | 0h 21m |
| Altitude | 17000 |
| Route | TIMIS Q39 DANDI DCT PENIL |
| Aircraft | A319/M-SDE2E3FGIJ1RWXYZ/LB1 |
Departure
| Time | 2026-04-15 15:12 |
|---|---|
| Airport | Isle of Man Airport (EGNS) |
Arrival
| Time | 2026-04-15 15:34 |
|---|---|
| Airport | Liverpool John Lennon Airport (EGGP) |
| Time | Latitude | Longitude | Altitude | Speed | Heading |
|---|---|---|---|---|---|
| 2026-04-15 14:53 | 54.08590 | -4.63319 | 39 ft | 0 kts | 44° |
| 2026-04-15 15:04 | 54.08578 | -4.63341 | 38 ft | 4 kts | 44° |
| 2026-04-15 15:04 | 54.08561 | -4.63371 | 39 ft | 4 kts | 73° |
| 2026-04-15 15:05 | 54.08564 | -4.63403 | 37 ft | 2 kts | 134° |
| 2026-04-15 15:05 | 54.08570 | -4.63413 | 35 ft | 0 kts | 134° |
| 2026-04-15 15:07 | 54.08567 | -4.63408 | 36 ft | 1 kts | 134° |
| 2026-04-15 15:08 | 54.08552 | -4.63381 | 39 ft | 5 kts | 133° |
| 2026-04-15 15:08 | 54.08519 | -4.63330 | 39 ft | 6 kts | 163° |
| 2026-04-15 15:08 | 54.08469 | -4.63351 | 39 ft | 10 kts | 174° |
| 2026-04-15 15:08 | 54.08420 | -4.63241 | 39 ft | 13 kts | 117° |
| 2026-04-15 15:09 | 54.08401 | -4.63086 | 39 ft | 14 kts | 79° |
| 2026-04-15 15:09 | 54.08423 | -4.62916 | 38 ft | 16 kts | 78° |
| 2026-04-15 15:09 | 54.08448 | -4.62720 | 40 ft | 17 kts | 77° |
| 2026-04-15 15:09 | 54.08473 | -4.62518 | 39 ft | 18 kts | 78° |
| 2026-04-15 15:10 | 54.08501 | -4.62308 | 40 ft | 19 kts | 77° |
| 2026-04-15 15:10 | 54.08528 | -4.62084 | 40 ft | 20 kts | 78° |
| 2026-04-15 15:10 | 54.08558 | -4.61851 | 39 ft | 21 kts | 79° |
| 2026-04-15 15:10 | 54.08589 | -4.61591 | 39 ft | 24 kts | 78° |
| 2026-04-15 15:11 | 54.08625 | -4.61311 | 38 ft | 24 kts | 77° |
| 2026-04-15 15:11 | 54.08661 | -4.61025 | 38 ft | 25 kts | 78° |
| 2026-04-15 15:11 | 54.08609 | -4.60782 | 38 ft | 22 kts | 157° |
| 2026-04-15 15:11 | 54.08520 | -4.60848 | 37 ft | 16 kts | 260° |
| 2026-04-15 15:12 | 54.08484 | -4.61140 | 37 ft | 51 kts | 258° |
| 2026-04-15 15:12 | 54.08355 | -4.62166 | 39 ft | 124 kts | 258° |
| 2026-04-15 15:12 | 54.08171 | -4.63771 | 531 ft | 136 kts | 248° |
| 2026-04-15 15:12 | 54.07990 | -4.65328 | 1336 ft | 133 kts | 248° |
| 2026-04-15 15:13 | 54.07761 | -4.66938 | 1877 ft | 150 kts | 245° |
| 2026-04-15 15:13 | 54.07454 | -4.68741 | 2401 ft | 166 kts | 241° |
| 2026-04-15 15:13 | 54.06563 | -4.70037 | 2684 ft | 187 kts | 201° |
| 2026-04-15 15:13 | 54.05209 | -4.70667 | 3210 ft | 214 kts | 193° |
| 2026-04-15 15:14 | 54.03674 | -4.70431 | 4043 ft | 236 kts | 164° |
| 2026-04-15 15:14 | 54.02217 | -4.69031 | 5095 ft | 246 kts | 152° |
| 2026-04-15 15:14 | 54.00828 | -4.67276 | 6185 ft | 251 kts | 149° |
| 2026-04-15 15:14 | 53.99436 | -4.65433 | 7162 ft | 256 kts | 148° |
| 2026-04-15 15:15 | 53.98006 | -4.63591 | 8148 ft | 260 kts | 149° |
| 2026-04-15 15:15 | 53.96533 | -4.61772 | 9138 ft | 264 kts | 150° |
| 2026-04-15 15:15 | 53.95082 | -4.59800 | 10074 ft | 273 kts | 140° |
| 2026-04-15 15:15 | 53.93892 | -4.57185 | 10823 ft | 291 kts | 130° |
| 2026-04-15 15:16 | 53.92707 | -4.54248 | 11283 ft | 310 kts | 130° |
| 2026-04-15 15:16 | 53.91472 | -4.51188 | 12088 ft | 317 kts | 130° |
| 2026-04-15 15:16 | 53.90216 | -4.48078 | 12973 ft | 321 kts | 131° |
| 2026-04-15 15:16 | 53.88944 | -4.44937 | 13847 ft | 324 kts | 131° |
| 2026-04-15 15:17 | 53.87661 | -4.41769 | 14666 ft | 327 kts | 130° |
| 2026-04-15 15:17 | 53.86363 | -4.38576 | 15462 ft | 330 kts | 130° |
| 2026-04-15 15:17 | 53.85050 | -4.35358 | 16251 ft | 333 kts | 130° |
| 2026-04-15 15:17 | 53.83725 | -4.32115 | 16664 ft | 336 kts | 130° |
| 2026-04-15 15:18 | 53.82401 | -4.28868 | 16770 ft | 330 kts | 130° |
| 2026-04-15 15:18 | 53.81135 | -4.25749 | 16784 ft | 314 kts | 130° |
| 2026-04-15 15:18 | 53.79908 | -4.22733 | 16785 ft | 309 kts | 130° |
| 2026-04-15 15:18 | 53.78686 | -4.19751 | 16786 ft | 308 kts | 131° |
| 2026-04-15 15:19 | 53.77464 | -4.16785 | 16634 ft | 306 kts | 131° |
| 2026-04-15 15:19 | 53.76262 | -4.13867 | 16373 ft | 299 kts | 132° |
| 2026-04-15 15:19 | 53.75080 | -4.11000 | 16110 ft | 296 kts | 132° |
| 2026-04-15 15:19 | 53.73903 | -4.08154 | 15849 ft | 295 kts | 132° |
| 2026-04-15 15:20 | 53.72728 | -4.05317 | 15589 ft | 294 kts | 132° |
| 2026-04-15 15:20 | 53.71554 | -4.02487 | 15332 ft | 294 kts | 132° |
| 2026-04-15 15:20 | 53.70390 | -3.99672 | 15108 ft | 290 kts | 132° |
| 2026-04-15 15:20 | 53.69243 | -3.96898 | 14796 ft | 287 kts | 132° |
| 2026-04-15 15:21 | 53.68209 | -3.93992 | 14462 ft | 293 kts | 122° |
| 2026-04-15 15:21 | 53.67435 | -3.90791 | 14097 ft | 295 kts | 119° |
| 2026-04-15 15:21 | 53.66675 | -3.87581 | 13755 ft | 295 kts | 119° |
| 2026-04-15 15:21 | 53.65914 | -3.84376 | 13379 ft | 294 kts | 120° |
| 2026-04-15 15:22 | 53.65151 | -3.81185 | 13011 ft | 293 kts | 120° |
| 2026-04-15 15:22 | 53.64388 | -3.78008 | 12657 ft | 292 kts | 120° |
| 2026-04-15 15:22 | 53.63630 | -3.74843 | 12303 ft | 290 kts | 120° |
| 2026-04-15 15:22 | 53.62877 | -3.71696 | 11957 ft | 289 kts | 120° |
| 2026-04-15 15:23 | 53.62115 | -3.68576 | 11609 ft | 286 kts | 122° |
| 2026-04-15 15:23 | 53.61106 | -3.65773 | 11275 ft | 275 kts | 135° |
| 2026-04-15 15:23 | 53.59820 | -3.63460 | 10932 ft | 268 kts | 143° |
| 2026-04-15 15:23 | 53.58479 | -3.61299 | 10599 ft | 266 kts | 143° |
| 2026-04-15 15:24 | 53.57155 | -3.59151 | 10285 ft | 263 kts | 143° |
| 2026-04-15 15:24 | 53.55841 | -3.57021 | 9955 ft | 262 kts | 143° |
| 2026-04-15 15:24 | 53.54531 | -3.54899 | 9620 ft | 260 kts | 143° |
| 2026-04-15 15:24 | 53.53233 | -3.52796 | 9268 ft | 258 kts | 143° |
| 2026-04-15 15:25 | 53.51943 | -3.50712 | 8925 ft | 256 kts | 143° |
| 2026-04-15 15:25 | 53.50664 | -3.48649 | 8587 ft | 253 kts | 143° |
| 2026-04-15 15:25 | 53.49401 | -3.46612 | 8254 ft | 251 kts | 143° |
| 2026-04-15 15:25 | 53.48245 | -3.44405 | 7877 ft | 256 kts | 131° |
| 2026-04-15 15:26 | 53.47389 | -3.41752 | 7497 ft | 260 kts | 122° |
| 2026-04-15 15:26 | 53.46613 | -3.39027 | 7190 ft | 255 kts | 123° |
| 2026-04-15 15:26 | 53.45868 | -3.36413 | 7126 ft | 241 kts | 123° |
| 2026-04-15 15:26 | 53.45164 | -3.33955 | 7038 ft | 228 kts | 124° |
| 2026-04-15 15:27 | 53.44484 | -3.31596 | 6940 ft | 222 kts | 124° |
| 2026-04-15 15:27 | 53.43807 | -3.29271 | 6856 ft | 221 kts | 125° |
| 2026-04-15 15:27 | 53.43118 | -3.26976 | 6762 ft | 218 kts | 130° |
| 2026-04-15 15:27 | 53.42490 | -3.25706 | 6599 ft | 210 kts | 148° |
| 2026-04-15 15:28 | 53.41235 | -3.24770 | 6272 ft | 193 kts | 176° |
| 2026-04-15 15:28 | 53.39914 | -3.24459 | 5922 ft | 191 kts | 179° |
| 2026-04-15 15:28 | 53.38595 | -3.24212 | 5516 ft | 190 kts | 178° |
| 2026-04-15 15:28 | 53.37107 | -3.22680 | 5029 ft | 204 kts | 132° |
| 2026-04-15 15:29 | 53.36494 | -3.20534 | 4789 ft | 203 kts | 123° |
| 2026-04-15 15:29 | 53.36092 | -3.19104 | 4570 ft | 200 kts | 127° |
| 2026-04-15 15:29 | 53.35448 | -3.17066 | 4226 ft | 197 kts | 129° |
| 2026-04-15 15:29 | 53.34793 | -3.15054 | 3882 ft | 197 kts | 129° |
| 2026-04-15 15:30 | 53.34137 | -3.13052 | 3521 ft | 197 kts | 129° |
| 2026-04-15 15:30 | 53.33481 | -3.11043 | 3165 ft | 197 kts | 129° |
| 2026-04-15 15:30 | 53.32826 | -3.09035 | 2807 ft | 197 kts | 129° |
| 2026-04-15 15:30 | 53.32376 | -3.06842 | 2482 ft | 206 kts | 104° |
| 2026-04-15 15:31 | 53.32438 | -3.04446 | 2208 ft | 203 kts | 93° |
| 2026-04-15 15:31 | 53.32555 | -3.02168 | 1938 ft | 191 kts | 92° |
| 2026-04-15 15:31 | 53.32660 | -3.00003 | 1694 ft | 184 kts | 92° |
| 2026-04-15 15:31 | 53.32760 | -2.97888 | 1441 ft | 182 kts | 93° |
| 2026-04-15 15:32 | 53.32859 | -2.95827 | 1204 ft | 169 kts | 93° |
| 2026-04-15 15:32 | 53.32949 | -2.93991 | 970 ft | 150 kts | 95° |
| 2026-04-15 15:32 | 53.33029 | -2.92312 | 785 ft | 140 kts | 95° |
| 2026-04-15 15:32 | 53.33096 | -2.90708 | 584 ft | 137 kts | 89° |
| 2026-04-15 15:33 | 53.33175 | -2.89135 | 444 ft | 131 kts | 91° |
| 2026-04-15 15:33 | 53.33242 | -2.87640 | 251 ft | 126 kts | 92° |
| 2026-04-15 15:33 | 53.33310 | -2.86195 | 116 ft | 125 kts | 92° |
| 2026-04-15 15:33 | 53.33366 | -2.84899 | 95 ft | 91 kts | 85° |
| 2026-04-15 15:34 | 53.33406 | -2.84071 | 95 ft | 56 kts | 85° |
| 2026-04-15 15:34 | 53.33427 | -2.83663 | 95 ft | 17 kts | 73° |
| 2026-04-15 15:34 | 53.33527 | -2.83635 | 95 ft | 15 kts | 354° |
| 2026-04-15 15:34 | 53.33586 | -2.83745 | 95 ft | 15 kts | 262° |
| 2026-04-15 15:35 | 53.33578 | -2.83921 | 95 ft | 16 kts | 266° |
| 2026-04-15 15:35 | 53.33570 | -2.84107 | 96 ft | 17 kts | 265° |
| 2026-04-15 15:35 | 53.33559 | -2.84317 | 95 ft | 19 kts | 266° |
| 2026-04-15 15:35 | 53.33548 | -2.84539 | 96 ft | 20 kts | 265° |
| 2026-04-15 15:36 | 53.33538 | -2.84771 | 96 ft | 20 kts | 266° |
| 2026-04-15 15:36 | 53.33528 | -2.84982 | 94 ft | 11 kts | 265° |
| 2026-04-15 15:36 | 53.33569 | -2.85064 | 95 ft | 11 kts | 352° |
| 2026-04-15 15:36 | 53.33626 | -2.85078 | 95 ft | 6 kts | 324° |
| 2026-04-15 15:37 | 53.33630 | -2.85152 | 94 ft | 6 kts | 263° |
| 2026-04-15 15:37 | 53.33628 | -2.85194 | 94 ft | 0 kts | 265° |
| 2026-04-15 15:43 | 53.33628 | -2.85196 | 95 ft | 0 kts | 264° |